KEHA

Details ICAO KEHA
Name ELKHART MORTON CO
Region United States
Timezone America/Chicago (UTC-5.0)
Plans Departing 0
Arriving 2
Stats Elevation 3,622 ft / 1,104 m (AMSL)
Location 37.000735° -101.880011°
Runways 2
Magnetic Variation 6.305° E
Sunrise 2018-05-21 11:36:26 UTC / 2018-05-21 06:36:26 Local
Sunset 2018-05-22 01:54:41 UTC / 2018-05-21 20:54:41 Local
Advertisement - Login to hide

Runways

ID Width Length Bearing (true) Bearing (mag) Surface Threshold Offset Overrun Length
04 60 ft / 18 m 4,899 ft / 1,493 m 48.32° 42.02° Asphalt 0 ft / 0 m 0 ft / 0 m
17 60 ft / 18 m 4,911 ft / 1,497 m 179.30° 173.00° Asphalt 0 ft / 0 m 0 ft / 0 m
22 60 ft / 18 m 4,899 ft / 1,493 m 228.32° 222.02° Asphalt 0 ft / 0 m 0 ft / 0 m
35 60 ft / 18 m 4,911 ft / 1,497 m 359.30° 353.00° Asphalt 0 ft / 0 m 0 ft / 0 m

Map

Weather


0- 5 10 15 20 25 30 35+ Temperature / ° C

Clouds and Precipitation
Forecast for 2018-05-22 00:00 UTC. Updated 3 hours ago

Ground ~20,000 ft ~40,000 ft Winds

METAR

KEHA 220155Z AUTO 17012KT 10SM CLR 24/15 A2999 RMK AO2 T02410151

TAF

Not found

Frequencies

Recorded 118.02 MHz AWOS 1
Approach 134.00 MHz KANSAS CITY CNTR
Unicom 122.80 MHz CTAF/UNICOM
Warning: Do not use this data for real-world aviation or navigation. No guarantee of current accuracy is given.